sensor_id;sensor_type;location;lat;lon;timestamp;pressure;altitude;pressure_sealevel;temperature;humidity
74958;BME280;63741;42.624;26.276;2023-01-28T15:33:33;99625.66;;;3.96;59.96
74958;BME280;63741;42.624;26.276;2023-01-28T15:36:00;99628.97;;;4.17;59.18
74958;BME280;63741;42.624;26.276;2023-01-28T15:38:27;99627.56;;;4.10;59.98
74958;BME280;63741;42.624;26.276;2023-01-28T15:40:57;99631.50;;;4.18;59.34
74958;BME280;63741;42.624;26.276;2023-01-28T15:43:32;99642.88;;;4.17;58.94
74958;BME280;63741;42.624;26.276;2023-01-28T15:46:01;99642.97;;;4.16;59.01
74958;BME280;63741;42.624;26.276;2023-01-28T15:48:31;99646.59;;;4.13;59.27
74958;BME280;63741;42.624;26.276;2023-01-28T15:51:02;99644.19;;;4.26;58.10
74958;BME280;63741;42.624;26.276;2023-01-28T15:53:33;99651.13;;;4.10;58.22
74958;BME280;63741;42.624;26.276;2023-01-28T15:56:05;99649.06;;;4.16;59.63
74958;BME280;63741;42.624;26.276;2023-01-28T15:58:33;99645.66;;;4.14;60.02
74958;BME280;63741;42.624;26.276;2023-01-28T16:03:36;99650.66;;;4.19;59.23
74958;BME280;63741;42.624;26.276;2023-01-28T16:06:20;99664.44;;;4.05;59.21
74958;BME280;63741;42.624;26.276;2023-01-28T16:08:54;99659.38;;;4.02;59.47
74958;BME280;63741;42.624;26.276;2023-01-28T16:11:25;99671.00;;;4.14;58.73
74958;BME280;63741;42.624;26.276;2023-01-28T16:13:54;99668.09;;;4.02;59.91
74958;BME280;63741;42.624;26.276;2023-01-28T16:16:45;99671.78;;;3.98;60.22
74958;BME280;63741;42.624;26.276;2023-01-28T16:19:26;99677.47;;;3.89;60.20
74958;BME280;63741;42.624;26.276;2023-01-28T16:21:56;99675.63;;;4.09;59.26
74958;BME280;63741;42.624;26.276;2023-01-28T16:24:25;99681.47;;;4.14;59.08
74958;BME280;63741;42.624;26.276;2023-01-28T16:27:00;99675.28;;;4.32;59.47
74958;BME280;63741;42.624;26.276;2023-01-28T16:29:28;99679.38;;;4.38;58.51
74958;BME280;63741;42.624;26.276;2023-01-28T16:31:57;99695.53;;;4.28;59.72
74958;BME280;63741;42.624;26.276;2023-01-28T16:34:25;99686.91;;;4.61;57.45
74958;BME280;63741;42.624;26.276;2023-01-28T16:36:58;99682.00;;;4.38;58.47
74958;BME280;63741;42.624;26.276;2023-01-28T16:39:26;99685.00;;;3.95;59.62
74958;BME280;63741;42.624;26.276;2023-01-28T16:41:52;99687.47;;;3.98;60.46
74958;BME280;63741;42.624;26.276;2023-01-28T16:44:22;99693.63;;;3.97;59.42
74958;BME280;63741;42.624;26.276;2023-01-28T16:46:49;99689.59;;;3.73;60.72
74958;BME280;63741;42.624;26.276;2023-01-28T16:49:16;99685.88;;;3.60;62.52
74958;BME280;63741;42.624;26.276;2023-01-28T16:51:43;99693.47;;;4.00;60.31
74958;BME280;63741;42.624;26.276;2023-01-28T16:54:14;99692.56;;;3.84;60.48
74958;BME280;63741;42.624;26.276;2023-01-28T16:56:42;99695.66;;;3.73;61.47
74958;BME280;63741;42.624;26.276;2023-01-28T16:59:13;99696.59;;;3.72;61.90
74958;BME280;63741;42.624;26.276;2023-01-28T17:01:44;99708.53;;;3.78;61.58
74958;BME280;63741;42.624;26.276;2023-01-28T17:04:12;99703.94;;;4.00;60.95
74958;BME280;63741;42.624;26.276;2023-01-28T17:06:40;99707.16;;;3.88;60.92
74958;BME280;63741;42.624;26.276;2023-01-28T17:09:12;99712.84;;;3.96;61.01
74958;BME280;63741;42.624;26.276;2023-01-28T17:11:40;99714.41;;;4.18;59.55
74958;BME280;63741;42.624;26.276;2023-01-28T17:14:08;99724.19;;;4.31;57.93
74958;BME280;63741;42.624;26.276;2023-01-28T17:16:36;99730.81;;;4.04;60.03
74958;BME280;63741;42.624;26.276;2023-01-28T17:19:03;99732.25;;;3.92;60.52
74958;BME280;63741;42.624;26.276;2023-01-28T17:21:30;99727.41;;;3.85;61.33
74958;BME280;63741;42.624;26.276;2023-01-28T17:23:59;99731.75;;;3.67;63.07
74958;BME280;63741;42.624;26.276;2023-01-28T17:26:26;99733.53;;;3.66;62.49
74958;BME280;63741;42.624;26.276;2023-01-28T17:28:54;99742.34;;;3.64;63.11
74958;BME280;63741;42.624;26.276;2023-01-28T17:31:22;99737.34;;;3.59;62.67
74958;BME280;63741;42.624;26.276;2023-01-28T17:33:53;99734.63;;;3.61;62.74
74958;BME280;63741;42.624;26.276;2023-01-28T17:36:21;99735.13;;;3.69;62.21
74958;BME280;63741;42.624;26.276;2023-01-28T17:38:48;99724.34;;;3.94;60.60
74958;BME280;63741;42.624;26.276;2023-01-28T17:41:15;99733.09;;;3.93;61.50
74958;BME280;63741;42.624;26.276;2023-01-28T17:43:49;99746.69;;;4.18;60.49
74958;BME280;63741;42.624;26.276;2023-01-28T17:46:17;99740.28;;;4.07;60.59
74958;BME280;63741;42.624;26.276;2023-01-28T17:48:44;99741.72;;;4.64;58.92
74958;BME280;63741;42.624;26.276;2023-01-28T17:51:13;99744.66;;;4.23;60.11
74958;BME280;63741;42.624;26.276;2023-01-28T17:53:54;99749.53;;;4.31;59.39
74958;BME280;63741;42.624;26.276;2023-01-28T17:56:24;99747.59;;;4.00;61.29
74958;BME280;63741;42.624;26.276;2023-01-28T17:58:59;99748.97;;;3.90;61.71
74958;BME280;63741;42.624;26.276;2023-01-28T18:01:29;99756.22;;;4.19;59.22
74958;BME280;63741;42.624;26.276;2023-01-28T18:03:57;99763.69;;;4.27;58.92
74958;BME280;63741;42.624;26.276;2023-01-28T18:06:28;99762.94;;;4.25;59.58
74958;BME280;63741;42.624;26.276;2023-01-28T18:08:55;99773.50;;;4.41;59.22
74958;BME280;63741;42.624;26.276;2023-01-28T18:11:22;99773.13;;;4.48;59.11
74958;BME280;63741;42.624;26.276;2023-01-28T18:13:49;99764.50;;;4.29;59.05
74958;BME280;63741;42.624;26.276;2023-01-28T18:16:17;99774.78;;;4.15;59.97
74958;BME280;63741;42.624;26.276;2023-01-28T18:18:46;99773.38;;;4.08;60.60
74958;BME280;63741;42.624;26.276;2023-01-28T18:21:42;99780.63;;;3.84;61.45
74958;BME280;63741;42.624;26.276;2023-01-28T18:24:22;99782.00;;;3.73;61.90
74958;BME280;63741;42.624;26.276;2023-01-28T18:26:54;99788.56;;;3.82;61.42
74958;BME280;63741;42.624;26.276;2023-01-28T18:29:21;99791.25;;;3.80;61.34
74958;BME280;63741;42.624;26.276;2023-01-28T18:31:50;99782.78;;;3.75;62.24
74958;BME280;63741;42.624;26.276;2023-01-28T18:34:21;99788.47;;;3.66;63.14
74958;BME280;63741;42.624;26.276;2023-01-28T18:36:48;99787.16;;;3.75;63.13
74958;BME280;63741;42.624;26.276;2023-01-28T18:39:16;99786.59;;;3.68;62.51
74958;BME280;63741;42.624;26.276;2023-01-28T18:41:44;99791.41;;;3.59;62.54
74958;BME280;63741;42.624;26.276;2023-01-28T18:44:12;99787.38;;;3.89;62.79
74958;BME280;63741;42.624;26.276;2023-01-28T18:46:40;99786.50;;;3.70;63.04
74958;BME280;63741;42.624;26.276;2023-01-28T18:49:07;99796.19;;;4.23;62.22
74958;BME280;63741;42.624;26.276;2023-01-28T18:51:35;99794.66;;;4.36;60.18
74958;BME280;63741;42.624;26.276;2023-01-28T18:54:03;99801.75;;;4.34;60.15
74958;BME280;63741;42.624;26.276;2023-01-28T18:56:32;99806.81;;;4.37;60.87
74958;BME280;63741;42.624;26.276;2023-01-28T18:59:01;99807.91;;;4.16;60.49
74958;BME280;63741;42.624;26.276;2023-01-28T19:01:29;99804.53;;;4.31;60.43
74958;BME280;63741;42.624;26.276;2023-01-28T19:03:57;99805.69;;;4.25;61.42
74958;BME280;63741;42.624;26.276;2023-01-28T19:06:25;99811.41;;;4.15;61.52
74958;BME280;63741;42.624;26.276;2023-01-28T19:08:58;99816.44;;;4.19;61.75
74958;BME280;63741;42.624;26.276;2023-01-28T19:11:28;99809.69;;;3.96;62.03
74958;BME280;63741;42.624;26.276;2023-01-28T19:13:55;99814.44;;;4.07;61.77
74958;BME280;63741;42.624;26.276;2023-01-28T19:16:23;99817.03;;;4.43;60.42
74958;BME280;63741;42.624;26.276;2023-01-28T19:18:58;99815.03;;;4.48;60.29
74958;BME280;63741;42.624;26.276;2023-01-28T19:21:27;99819.25;;;4.34;60.05
74958;BME280;63741;42.624;26.276;2023-01-28T19:24:00;99823.53;;;4.17;61.11
74958;BME280;63741;42.624;26.276;2023-01-28T19:26:29;99823.16;;;4.25;60.53
74958;BME280;63741;42.624;26.276;2023-01-28T19:28:57;99832.00;;;4.22;60.92
74958;BME280;63741;42.624;26.276;2023-01-28T19:31:25;99824.91;;;4.07;61.88
74958;BME280;63741;42.624;26.276;2023-01-28T19:33:55;99828.22;;;3.92;62.40
74958;BME280;63741;42.624;26.276;2023-01-28T19:36:23;99826.94;;;4.00;62.58
74958;BME280;63741;42.624;26.276;2023-01-28T19:38:55;99831.72;;;4.46;59.99
74958;BME280;63741;42.624;26.276;2023-01-28T19:41:22;99825.47;;;4.31;60.71
74958;BME280;63741;42.624;26.276;2023-01-28T19:43:49;99831.81;;;4.44;59.79
74958;BME280;63741;42.624;26.276;2023-01-28T19:46:17;99836.03;;;4.64;58.96
74958;BME280;63741;42.624;26.276;2023-01-28T19:48:44;99840.53;;;4.62;59.48
74958;BME280;63741;42.624;26.276;2023-01-28T19:51:12;99840.38;;;4.48;59.96
74958;BME280;63741;42.624;26.276;2023-01-28T19:53:40;99845.44;;;4.68;58.38
74958;BME280;63741;42.624;26.276;2023-01-28T19:56:11;99839.44;;;4.66;59.32
74958;BME280;63741;42.624;26.276;2023-01-28T19:58:41;99842.53;;;4.57;58.72
74958;BME280;63741;42.624;26.276;2023-01-28T20:01:14;99850.00;;;4.47;59.79
74958;BME280;63741;42.624;26.276;2023-01-28T20:03:41;99843.59;;;4.53;59.88
74958;BME280;63741;42.624;26.276;2023-01-28T20:06:14;99845.13;;;4.03;61.54
74958;BME280;63741;42.624;26.276;2023-01-28T20:08:42;99840.09;;;3.99;61.34
74958;BME280;63741;42.624;26.276;2023-01-28T20:11:12;99853.63;;;3.90;61.63
74958;BME280;63741;42.624;26.276;2023-01-28T20:13:42;99856.47;;;3.85;62.04
74958;BME280;63741;42.624;26.276;2023-01-28T20:16:14;99868.31;;;3.92;61.97
74958;BME280;63741;42.624;26.276;2023-01-28T20:18:57;99870.81;;;3.95;63.45
74958;BME280;63741;42.624;26.276;2023-01-28T20:21:25;99866.91;;;4.04;63.96
74958;BME280;63741;42.624;26.276;2023-01-28T20:23:53;99876.75;;;3.99;64.27
74958;BME280;63741;42.624;26.276;2023-01-28T20:26:23;99868.75;;;4.02;64.82
74958;BME280;63741;42.624;26.276;2023-01-28T20:28:50;99880.97;;;4.01;64.77
74958;BME280;63741;42.624;26.276;2023-01-28T20:31:18;99869.94;;;3.57;65.82
74958;BME280;63741;42.624;26.276;2023-01-28T20:33:46;99882.16;;;3.57;66.42
74958;BME280;63741;42.624;26.276;2023-01-28T20:36:13;99879.41;;;3.60;67.09
74958;BME280;63741;42.624;26.276;2023-01-28T20:38:43;99887.84;;;3.66;66.74
74958;BME280;63741;42.624;26.276;2023-01-28T20:41:19;99888.06;;;3.62;67.66
74958;BME280;63741;42.624;26.276;2023-01-28T20:43:48;99888.09;;;3.41;68.36
74958;BME280;63741;42.624;26.276;2023-01-28T20:46:21;99890.78;;;3.40;68.02
74958;BME280;63741;42.624;26.276;2023-01-28T20:48:48;99894.88;;;3.25;68.59
74958;BME280;63741;42.624;26.276;2023-01-28T20:51:18;99895.53;;;3.30;69.28
74958;BME280;63741;42.624;26.276;2023-01-28T20:53:46;99895.34;;;3.35;69.13
74958;BME280;63741;42.624;26.276;2023-01-28T20:56:15;99896.91;;;3.39;68.22
74958;BME280;63741;42.624;26.276;2023-01-28T20:58:43;99900.75;;;3.30;69.36
74958;BME280;63741;42.624;26.276;2023-01-28T21:01:21;99898.25;;;3.47;68.88
74958;BME280;63741;42.624;26.276;2023-01-28T21:03:49;99906.91;;;3.29;69.84
74958;BME280;63741;42.624;26.276;2023-01-28T21:06:16;99910.44;;;3.08;70.55
74958;BME280;63741;42.624;26.276;2023-01-28T21:08:43;99914.69;;;3.10;70.80
74958;BME280;63741;42.624;26.276;2023-01-28T21:11:11;99907.78;;;3.09;70.52
74958;BME280;63741;42.624;26.276;2023-01-28T21:13:38;99910.13;;;3.15;70.36
74958;BME280;63741;42.624;26.276;2023-01-28T21:16:06;99915.44;;;3.14;70.80
74958;BME280;63741;42.624;26.276;2023-01-28T21:18:33;99918.75;;;3.17;70.75
74958;BME280;63741;42.624;26.276;2023-01-28T21:21:09;99924.56;;;3.24;70.23
74958;BME280;63741;42.624;26.276;2023-01-28T21:23:40;99920.91;;;3.28;70.62
74958;BME280;63741;42.624;26.276;2023-01-28T21:26:08;99921.84;;;3.27;70.17
74958;BME280;63741;42.624;26.276;2023-01-28T21:28:35;99917.25;;;3.32;69.06
74958;BME280;63741;42.624;26.276;2023-01-28T21:33:32;99933.13;;;3.27;68.94
74958;BME280;63741;42.624;26.276;2023-01-28T21:36:00;99934.53;;;3.35;68.78
74958;BME280;63741;42.624;26.276;2023-01-28T21:38:27;99927.81;;;3.29;68.74
74958;BME280;63741;42.624;26.276;2023-01-28T21:41:00;99933.00;;;3.31;68.91
74958;BME280;63741;42.624;26.276;2023-01-28T21:43:28;99929.53;;;3.30;68.73
74958;BME280;63741;42.624;26.276;2023-01-28T21:45:55;99924.03;;;3.36;69.16
74958;BME280;63741;42.624;26.276;2023-01-28T21:48:24;99934.25;;;3.22;69.66
74958;BME280;63741;42.624;26.276;2023-01-28T21:50:51;99933.22;;;3.26;70.31
74958;BME280;63741;42.624;26.276;2023-01-28T21:53:38;99921.19;;;3.22;69.02
74958;BME280;63741;42.624;26.276;2023-01-28T21:56:06;99928.63;;;3.31;68.99
74958;BME280;63741;42.624;26.276;2023-01-28T21:58:34;99923.41;;;3.31;68.96
74958;BME280;63741;42.624;26.276;2023-01-28T22:01:21;99936.50;;;3.29;69.45
74958;BME280;63741;42.624;26.276;2023-01-28T22:03:48;99938.47;;;3.24;68.66
74958;BME280;63741;42.624;26.276;2023-01-28T22:06:15;99938.44;;;3.26;69.23
74958;BME280;63741;42.624;26.276;2023-01-28T22:08:42;99939.84;;;3.33;68.96
74958;BME280;63741;42.624;26.276;2023-01-28T22:11:09;99940.78;;;3.32;68.77
74958;BME280;63741;42.624;26.276;2023-01-28T22:13:37;99937.25;;;3.33;69.23
74958;BME280;63741;42.624;26.276;2023-01-28T22:16:05;99943.47;;;3.31;69.02
74958;BME280;63741;42.624;26.276;2023-01-28T22:18:32;99937.44;;;3.28;68.87
74958;BME280;63741;42.624;26.276;2023-01-28T22:21:00;99935.41;;;3.15;69.88
74958;BME280;63741;42.624;26.276;2023-01-28T22:23:28;99940.38;;;3.21;69.78
74958;BME280;63741;42.624;26.276;2023-01-28T22:25:56;99940.44;;;3.19;70.04
74958;BME280;63741;42.624;26.276;2023-01-28T22:28:24;99936.06;;;3.20;70.34
74958;BME280;63741;42.624;26.276;2023-01-28T22:30:51;99940.56;;;3.16;70.14
74958;BME280;63741;42.624;26.276;2023-01-28T22:33:19;99933.13;;;3.27;69.48
74958;BME280;63741;42.624;26.276;2023-01-28T22:35:47;99936.66;;;3.26;69.35
74958;BME280;63741;42.624;26.276;2023-01-28T22:38:14;99940.97;;;3.27;70.20
74958;BME280;63741;42.624;26.276;2023-01-28T22:40:41;99938.34;;;3.27;70.54
74958;BME280;63741;42.624;26.276;2023-01-28T22:43:08;99941.75;;;3.09;70.68
74958;BME280;63741;42.624;26.276;2023-01-28T22:45:35;99942.97;;;3.21;71.15
74958;BME280;63741;42.624;26.276;2023-01-28T22:48:02;99936.00;;;3.21;71.29
74958;BME280;63741;42.624;26.276;2023-01-28T22:50:29;99937.72;;;3.22;71.51
74958;BME280;63741;42.624;26.276;2023-01-28T22:52:56;99936.06;;;3.20;69.88
74958;BME280;63741;42.624;26.276;2023-01-28T22:55:23;99932.22;;;3.08;70.10
74958;BME280;63741;42.624;26.276;2023-01-28T22:57:50;99932.38;;;3.03;70.78
74958;BME280;63741;42.624;26.276;2023-01-28T23:00:18;99928.28;;;3.18;71.65
74958;BME280;63741;42.624;26.276;2023-01-28T23:02:45;99936.25;;;3.15;71.43
74958;BME280;63741;42.624;26.276;2023-01-28T23:05:12;99931.81;;;2.97;72.23
74958;BME280;63741;42.624;26.276;2023-01-28T23:07:39;99931.16;;;3.12;72.42
74958;BME280;63741;42.624;26.276;2023-01-28T23:10:07;99927.00;;;3.08;72.89
74958;BME280;63741;42.624;26.276;2023-01-28T23:12:34;99921.78;;;3.08;72.53
74958;BME280;63741;42.624;26.276;2023-01-28T23:15:01;99913.63;;;2.94;73.34
74958;BME280;63741;42.624;26.276;2023-01-28T23:17:46;99929.84;;;3.02;73.61
74958;BME280;63741;42.624;26.276;2023-01-28T23:20:32;99920.97;;;3.06;73.23
74958;BME280;63741;42.624;26.276;2023-01-28T23:23:17;99917.97;;;2.95;72.90
74958;BME280;63741;42.624;26.276;2023-01-28T23:26:03;99922.09;;;3.00;72.92
74958;BME280;63741;42.624;26.276;2023-01-28T23:28:32;99916.91;;;2.99;73.24
74958;BME280;63741;42.624;26.276;2023-01-28T23:31:00;99911.88;;;2.94;73.96
74958;BME280;63741;42.624;26.276;2023-01-28T23:33:27;99904.94;;;2.93;74.00
74958;BME280;63741;42.624;26.276;2023-01-28T23:35:54;99911.88;;;2.94;74.30
74958;BME280;63741;42.624;26.276;2023-01-28T23:38:21;99915.16;;;2.99;73.99
74958;BME280;63741;42.624;26.276;2023-01-28T23:40:47;99915.56;;;2.90;74.45
74958;BME280;63741;42.624;26.276;2023-01-28T23:43:14;99908.03;;;2.83;74.83
74958;BME280;63741;42.624;26.276;2023-01-28T23:45:41;99906.13;;;2.86;75.02
74958;BME280;63741;42.624;26.276;2023-01-28T23:48:08;99907.03;;;2.85;75.18
74958;BME280;63741;42.624;26.276;2023-01-28T23:50:35;99921.09;;;2.83;74.86
74958;BME280;63741;42.624;26.276;2023-01-28T23:53:02;99918.00;;;2.73;74.74
74958;BME280;63741;42.624;26.276;2023-01-28T23:55:30;99921.09;;;2.61;75.38
74958;BME280;63741;42.624;26.276;2023-01-28T23:57:56;99909.56;;;2.66;75.04
